Time;durP1;ratioP1;P1;durP2;ratioP2;P2;SDS_P1;SDS_P2;PMS_P1;PMS_P2;Temp;Humidity;BMP_temperature;BMP_pressure;BME280_temperature;BME280_humidity;BME280_pressure;Samples;Min_cycle;Max_cycle;Signal;HPM_P1;HPM_P2
2021/07/11 00:01:44;;;;;;;9.95;7.55;;;;;;;17.62;77.01;96947.72;5025417;28;20500;-63
2021/07/11 00:04:09;;;;;;;10.15;6.88;;;;;;;17.61;76.65;96946.13;5027256;28;20510;-62
2021/07/11 00:06:37;;;;;;;10.50;7.82;;;;;;;17.60;76.79;96941.75;5026874;28;20040;-62
2021/07/11 00:09:06;;;;;;;8.52;7.22;;;;;;;17.54;76.90;96944.22;5041918;28;20049;-62
2021/07/11 00:11:32;;;;;;;7.90;7.10;;;;;;;17.23;77.09;96899.75;5024874;28;20088;-61
2021/07/11 00:14:02;;;;;;;9.55;7.95;;;;;;;17.01;77.05;96853.63;5026903;28;20128;-60
2021/07/11 00:16:28;;;;;;;10.02;7.68;;;;;;;17.45;77.50;96935.50;5025325;28;20051;-61
2021/07/11 00:18:54;;;;;;;8.80;7.28;;;;;;;16.93;77.80;96864.06;5025527;28;20061;-62
2021/07/11 00:21:20;;;;;;;11.65;7.57;;;;;;;16.99;78.05;96872.81;5025357;28;20476;-63
2021/07/11 00:23:45;;;;;;;8.35;7.55;;;;;;;17.44;77.87;96922.72;5026935;28;20132;-62
2021/07/11 00:26:11;;;;;;;7.72;7.03;;;;;;;17.08;78.27;96873.13;5024911;28;20444;-62
2021/07/11 00:28:36;;;;;;;9.32;7.30;;;;;;;17.39;78.33;96913.94;5026818;28;20029;-61
2021/07/11 00:31:01;;;;;;;11.10;7.45;;;;;;;17.34;77.90;96906.03;5026339;28;20034;-62
2021/07/11 00:33:29;;;;;;;10.20;6.75;;;;;;;17.34;78.54;96925.63;5025019;28;20069;-62
2021/07/11 00:35:54;;;;;;;8.32;7.22;;;;;;;17.28;79.09;96924.47;5024989;28;20199;-61
2021/07/11 00:38:20;;;;;;;10.70;7.45;;;;;;;17.31;78.68;96906.88;5024951;28;20496;-62
2021/07/11 00:40:45;;;;;;;11.32;8.10;;;;;;;17.33;78.67;96899.63;5026007;28;20044;-61
2021/07/11 00:43:12;;;;;;;9.55;7.13;;;;;;;17.37;78.14;96902.38;5016843;28;20049;-62
2021/07/11 00:45:38;;;;;;;8.30;7.40;;;;;;;17.33;78.36;96898.81;5026216;28;20037;-61
2021/07/11 00:48:04;;;;;;;9.05;6.75;;;;;;;16.76;78.37;96816.69;5024212;28;20504;-61
2021/07/11 00:50:30;;;;;;;9.02;7.28;;;;;;;17.29;78.24;96898.09;5024638;28;20049;-62
2021/07/11 00:52:56;;;;;;;12.57;7.80;;;;;;;17.26;78.37;96894.09;5024226;28;20424;-62
2021/07/11 00:55:23;;;;;;;9.35;7.35;;;;;;;17.10;78.57;96893.09;5020730;28;20038;-61
2021/07/11 00:57:51;;;;;;;12.48;7.30;;;;;;;16.78;78.40;96811.50;5004559;28;20100;-61
2021/07/11 01:00:17;;;;;;;10.00;7.05;;;;;;;17.28;78.98;96890.88;5006644;28;20489;-61
2021/07/11 01:03:10;;;;;;;9.32;7.60;;;;;;;17.34;78.49;96892.03;5006321;28;20037;-61
2021/07/11 01:05:36;;;;;;;10.45;7.15;;;;;;;17.39;77.74;96891.53;5004674;28;20521;-61
2021/07/11 01:08:16;;;;;;;10.98;7.15;;;;;;;17.41;78.07;96894.72;5003596;28;20030;-63
2021/07/11 01:10:46;;;;;;;11.98;7.93;;;;;;;17.36;78.04;96886.78;5004469;28;20065;-64
2021/07/11 01:13:17;;;;;;;9.77;8.27;;;;;;;17.36;77.99;96887.59;5004457;28;20033;-62
2021/07/11 01:15:50;;;;;;;9.90;7.40;;;;;;;17.33;78.25;96887.63;5006074;28;20042;-62
2021/07/11 01:18:19;;;;;;;9.05;7.25;;;;;;;17.47;77.75;96882.69;5004271;28;20029;-62
2021/07/11 01:20:55;;;;;;;8.55;7.53;;;;;;;17.48;77.83;96894.69;5004418;28;20065;-62
2021/07/11 01:23:57;;;;;;;8.45;7.45;;;;;;;17.55;77.84;96888.97;5005947;28;20033;-62
2021/07/11 01:26:25;;;;;;;7.63;7.00;;;;;;;17.28;76.59;96848.88;5004331;28;20219;-62
2021/07/11 01:28:52;;;;;;;8.98;7.72;;;;;;;17.57;76.77;96892.16;5004218;28;20103;-62
2021/07/11 01:31:20;;;;;;;9.20;7.15;;;;;;;17.41;77.13;96883.53;5005378;28;20030;-61
2021/07/11 01:33:46;;;;;;;8.63;7.55;;;;;;;17.43;77.01;96893.13;5003540;28;20046;-61
2021/07/11 01:36:13;;;;;;;8.10;7.20;;;;;;;17.38;76.57;96864.75;5004101;28;20511;-62
2021/07/11 01:38:41;;;;;;;8.70;7.30;;;;;;;17.36;77.10;96881.97;5004178;28;20057;-62
2021/07/11 01:41:09;;;;;;;9.35;8.23;;;;;;;17.19;78.06;96887.78;5004068;28;20118;-61
2021/07/11 01:43:35;;;;;;;9.13;8.23;;;;;;;17.09;78.61;96905.47;5003897;28;20045;-63
2021/07/11 01:46:02;;;;;;;8.77;7.20;;;;;;;17.04;79.46;96892.75;5005549;28;20052;-61
2021/07/11 01:48:30;;;;;;;8.88;7.95;;;;;;;17.05;79.71;96893.53;5003275;28;20184;-62
2021/07/11 01:50:57;;;;;;;10.75;7.20;;;;;;;16.86;79.33;96880.16;5003412;28;20368;-62
2021/07/11 01:53:25;;;;;;;9.98;7.32;;;;;;;16.87;80.22;96899.31;5004949;28;20505;-61
2021/07/11 01:55:52;;;;;;;8.48;7.68;;;;;;;16.86;80.43;96891.34;5038511;28;20029;-62
2021/07/11 01:58:19;;;;;;;8.50;7.63;;;;;;;16.88;80.44;96905.72;5024984;28;20084;-62
2021/07/11 02:00:46;;;;;;;12.88;7.32;;;;;;;16.66;80.75;96859.56;5025154;28;20048;-61
2021/07/11 02:03:22;;;;;;;11.00;7.72;;;;;;;16.72;80.35;96881.09;5007481;28;20045;-61
2021/07/11 02:05:49;;;;;;;8.75;7.82;;;;;;;17.02;79.72;96899.97;5023079;28;20033;-61
2021/07/11 02:08:15;;;;;;;8.70;7.80;;;;;;;17.05;79.58;96899.94;5024428;28;20032;-63
2021/07/11 02:10:45;;;;;;;10.23;7.63;;;;;;;17.13;79.28;96906.25;5024080;28;20045;-62
2021/07/11 02:13:36;;;;;;;9.50;8.02;;;;;;;16.98;79.63;96900.00;5024567;28;20465;-61
2021/07/11 02:16:11;;;;;;;7.72;7.03;;;;;;;16.67;78.96;96838.78;5011688;28;20049;-61
2021/07/11 02:18:40;;;;;;;8.70;7.38;;;;;;;16.70;79.83;96861.13;5022209;28;20075;-61
2021/07/11 02:21:07;;;;;;;10.13;7.60;;;;;;;16.92;79.93;96900.88;5022698;28;20185;-61
2021/07/11 02:23:34;;;;;;;9.55;7.68;;;;;;;16.76;80.35;96886.63;5022876;28;20029;-62
2021/07/11 02:26:00;;;;;;;9.00;8.10;;;;;;;16.73;80.97;96901.44;5022445;28;20030;-61
2021/07/11 02:28:30;;;;;;;9.23;7.38;;;;;;;16.69;81.14;96886.72;5022625;28;20034;-61
2021/07/11 02:31:00;;;;;;;8.23;7.22;;;;;;;16.64;81.22;96880.34;5022767;28;20473;-61
2021/07/11 02:33:48;;;;;;;11.52;7.72;;;;;;;16.73;80.91;96899.47;5024032;28;20048;-62
2021/07/11 02:36:17;;;;;;;8.90;7.38;;;;;;;16.36;81.33;96849.81;5024144;28;20050;-60
2021/07/11 02:38:54;;;;;;;9.55;7.97;;;;;;;16.73;81.18;96890.25;5022662;28;20060;-61
2021/07/11 02:41:21;;;;;;;8.93;7.72;;;;;;;16.85;80.18;96906.56;5022555;28;20033;-61
2021/07/11 02:43:49;;;;;;;12.00;8.30;;;;;;;16.77;80.36;96903.00;5023996;28;20038;-61
2021/07/11 02:46:23;;;;;;;9.80;8.75;;;;;;;16.76;80.70;96895.03;5023804;28;20036;-61
2021/07/11 02:48:49;;;;;;;9.40;8.23;;;;;;;16.81;80.51;96895.38;5021805;28;20041;-61
2021/07/11 02:51:19;;;;;;;10.23;8.40;;;;;;;16.88;80.08;96894.53;5023797;28;20041;-60
2021/07/11 02:53:47;;;;;;;8.43;7.63;;;;;;;16.46;79.93;96823.81;5023615;28;20071;-61
2021/07/11 02:56:17;;;;;;;10.52;7.78;;;;;;;16.07;80.13;96780.63;5022248;28;20107;-60
2021/07/11 02:58:43;;;;;;;9.23;8.32;;;;;;;17.04;79.40;96915.13;5023466;28;20081;-61
2021/07/11 03:01:10;;;;;;;10.30;8.10;;;;;;;16.72;79.33;96863.50;5021907;28;20523;-61
2021/07/11 03:03:36;;;;;;;13.85;8.68;;;;;;;16.84;80.17;96902.16;5023525;28;20026;-61
2021/07/11 03:06:03;;;;;;;8.77;7.80;;;;;;;16.94;80.20;96915.25;5023222;28;20068;-59
2021/07/11 03:08:28;;;;;;;8.43;7.63;;;;;;;16.82;79.59;96890.59;5021869;28;20481;-63
2021/07/11 03:10:56;;;;;;;11.45;7.78;;;;;;;16.94;79.49;96915.25;5021497;28;20205;-60
2021/07/11 03:13:23;;;;;;;11.27;7.57;;;;;;;16.69;79.70;96878.34;5021469;28;20086;-62
2021/07/11 03:15:49;;;;;;;9.00;7.47;;;;;;;13.81;79.86;96436.72;5021769;28;20045;-61
2021/07/11 03:18:16;;;;;;;10.07;8.00;;;;;;;16.83;80.54;96920.16;5021483;28;20037;-61
2021/07/11 03:20:45;;;;;;;9.50;8.25;;;;;;;16.72;80.65;96908.28;5023011;28;20046;-61
2021/07/11 03:23:11;;;;;;;11.68;7.40;;;;;;;16.88;80.04;96912.13;5021603;28;20040;-64
2021/07/11 03:25:38;;;;;;;8.40;7.47;;;;;;;16.85;80.75;96923.34;5021849;28;20049;-61
2021/07/11 03:28:07;;;;;;;10.90;8.23;;;;;;;16.84;81.32;96921.72;5022810;28;20533;-61
2021/07/11 03:30:42;;;;;;;11.90;7.75;;;;;;;16.44;80.59;96837.41;5027172;28;20036;-62
2021/07/11 03:33:08;;;;;;;8.38;7.30;;;;;;;16.77;80.14;96888.25;5028489;28;20534;-61
2021/07/11 03:35:53;;;;;;;9.23;8.30;;;;;;;16.97;80.37;96917.22;5028308;28;20033;-61
2021/07/11 03:38:29;;;;;;;11.45;7.70;;;;;;;16.63;80.55;96873.19;5029388;28;20037;-61
2021/07/11 03:40:55;;;;;;;9.93;7.70;;;;;;;16.98;80.49;96918.78;5028226;28;20057;-62
2021/07/11 03:43:23;;;;;;;9.93;8.32;;;;;;;16.56;79.96;96839.69;5029255;28;20063;-61
2021/07/11 03:45:53;;;;;;;12.70;7.80;;;;;;;17.23;79.05;96927.75;5027387;28;20103;-62
2021/07/11 03:48:42;;;;;;;9.18;8.18;;;;;;;17.29;79.20;96921.25;5027891;28;20041;-61
2021/07/11 03:51:10;;;;;;;8.75;7.85;;;;;;;17.39;78.23;96925.16;5029279;28;20065;-61
2021/07/11 03:53:37;;;;;;;9.30;8.30;;;;;;;17.51;77.94;96922.66;5029708;28;20037;-61
2021/07/11 03:56:04;;;;;;;10.68;7.63;;;;;;;17.70;76.77;96929.63;5008126;28;20085;-61
2021/07/11 03:58:33;;;;;;;9.15;8.25;;;;;;;17.79;76.03;96933.50;5007979;28;20040;-60
2021/07/11 04:01:00;;;;;;;10.63;8.63;;;;;;;17.54;76.01;96865.00;5009659;28;20038;-61
2021/07/11 04:03:26;;;;;;;11.77;8.55;;;;;;;17.98;75.34;96923.63;5008303;28;20213;-62
2021/07/11 04:05:52;;;;;;;13.10;8.90;;;;;;;17.74;75.19;96874.31;5007426;28;20026;-61
2021/07/11 04:08:20;;;;;;;14.90;8.77;;;;;;;17.98;74.27;96873.19;5008583;28;20041;-61
2021/07/11 04:10:47;;;;;;;12.40;9.05;;;;;;;18.20;73.60;96882.84;5007279;28;20301;-63
2021/07/11 04:13:14;;;;;;;16.55;8.43;;;;;;;18.61;73.37;96919.88;5007007;28;20033;-61
2021/07/11 04:15:41;;;;;;;11.00;8.40;;;;;;;18.57;73.06;96901.53;5007155;28;20071;-62
2021/07/11 04:18:11;;;;;;;9.23;8.32;;;;;;;18.82;72.49;96913.94;5007245;28;20045;-62
2021/07/11 04:20:38;;;;;;;10.07;8.05;;;;;;;18.68;71.93;96865.66;5008310;28;20099;-62
2021/07/11 04:23:05;;;;;;;10.75;8.27;;;;;;;19.09;71.07;96920.25;5006432;28;20512;-61
2021/07/11 04:25:33;;;;;;;13.93;8.38;;;;;;;19.21;70.45;96922.44;5008029;28;20045;-62
2021/07/11 04:28:00;;;;;;;9.57;8.32;;;;;;;19.48;69.41;96925.97;5006623;28;20044;-61
2021/07/11 04:30:26;;;;;;;11.98;8.77;;;;;;;19.62;68.69;96915.66;5007228;28;20184;-61
2021/07/11 04:32:51;;;;;;;9.77;8.75;;;;;;;19.64;68.58;96910.38;5008481;28;20037;-62
2021/07/11 04:35:17;;;;;;;10.48;9.40;;;;;;;19.89;67.50;96927.53;5008494;28;20038;-61
2021/07/11 04:37:42;;;;;;;17.50;9.27;;;;;;;19.99;67.42;96916.06;5007705;28;20030;-61
2021/07/11 04:40:09;;;;;;;17.77;10.07;;;;;;;20.14;66.57;96914.53;5007862;28;20037;-59
2021/07/11 04:42:34;;;;;;;21.05;10.27;;;;;;;19.86;66.71;96872.16;5006238;28;20065;-61
2021/07/11 04:45:02;;;;;;;11.10;9.05;;;;;;;20.45;65.58;96923.47;5004746;28;20200;-60
2021/07/11 04:47:28;;;;;;;10.82;8.90;;;;;;;20.20;65.25;96864.19;5004888;28;20576;-61
2021/07/11 04:49:54;;;;;;;12.73;8.40;;;;;;;20.72;64.70;96913.53;5006345;28;20053;-62
2021/07/11 04:52:19;;;;;;;9.25;8.25;;;;;;;20.59;64.29;96866.84;5004352;28;20121;-62
2021/07/11 04:54:45;;;;;;;11.15;7.88;;;;;;;20.98;64.08;96915.34;5015106;28;20040;-60
2021/07/11 04:57:10;;;;;;;12.32;9.07;;;;;;;21.07;63.58;96911.88;5025168;28;20543;-60
2021/07/11 04:59:36;;;;;;;10.98;9.05;;;;;;;19.39;63.31;96632.78;5024101;28;20068;-60
2021/07/11 05:02:01;;;;;;;12.95;9.55;;;;;;;21.30;63.29;96917.31;5025753;28;20037;-61
2021/07/11 05:04:27;;;;;;;10.07;9.07;;;;;;;21.40;63.02;96907.78;5025628;28;20034;-60
2021/07/11 05:06:52;;;;;;;10.82;8.80;;;;;;;21.35;62.92;96865.25;5025685;28;20029;-61
2021/07/11 05:09:18;;;;;;;14.93;9.00;;;;;;;21.36;62.70;96850.72;5025890;28;20041;-61
2021/07/11 05:11:43;;;;;;;10.43;8.80;;;;;;;21.86;61.93;96895.97;5025548;28;20041;-61
2021/07/11 05:14:09;;;;;;;11.63;9.48;;;;;;;21.89;61.69;96895.09;5025762;28;20038;-61
2021/07/11 05:16:35;;;;;;;13.95;8.70;;;;;;;22.11;61.17;96912.19;5023574;28;20130;-61
2021/07/11 05:19:02;;;;;;;11.20;9.40;;;;;;;21.94;60.32;96845.81;5023380;28;20107;-61
2021/07/11 05:21:29;;;;;;;10.50;9.15;;;;;;;22.15;60.04;96868.50;5025111;28;20068;-62
2021/07/11 05:23:55;;;;;;;14.75;9.27;;;;;;;22.08;60.67;96840.50;5025043;28;20116;-61
2021/07/11 05:26:21;;;;;;;17.15;11.13;;;;;;;22.64;60.33;96893.56;5023742;28;20095;-62
2021/07/11 05:28:46;;;;;;;15.52;10.73;;;;;;;22.76;59.61;96895.63;5023636;28;20041;-61
2021/07/11 05:31:12;;;;;;;16.63;9.95;;;;;;;22.86;59.29;96894.47;5025323;28;20042;-62
2021/07/11 05:33:37;;;;;;;14.07;10.27;;;;;;;22.99;59.51;96892.41;5023061;28;20030;-62
2021/07/11 05:36:04;;;;;;;13.35;9.35;;;;;;;23.13;59.53;96903.22;5023229;28;20068;-61
2021/07/11 05:38:29;;;;;;;12.93;9.60;;;;;;;23.32;58.76;96896.50;5025249;28;20120;-61
2021/07/11 05:40:55;;;;;;;13.65;9.73;;;;;;;21.99;58.05;96645.75;5025031;28;20108;-60
2021/07/11 05:43:20;;;;;;;14.65;9.68;;;;;;;23.62;58.92;96879.66;5024649;28;20026;-61
2021/07/11 05:45:46;;;;;;;10.35;9.35;;;;;;;23.69;58.55;96870.13;5023366;28;20030;-61
2021/07/11 05:48:12;;;;;;;12.57;10.00;;;;;;;23.52;57.68;96858.19;5023309;28;20033;-62
2021/07/11 05:50:37;;;;;;;12.23;8.98;;;;;;;24.10;56.70;96892.41;5025249;28;20029;-61
2021/07/11 05:53:03;;;;;;;10.25;9.15;;;;;;;24.21;56.34;96887.13;5024826;28;20033;-62
2021/07/11 05:55:28;;;;;;;10.65;9.00;;;;;;;24.53;55.90;96892.28;5023246;28;20518;-60
2021/07/11 05:57:54;;;;;;;15.35;9.02;;;;;;;24.60;54.64;96855.19;5022750;28;20041;-62
2021/07/11 06:00:19;;;;;;;14.35;9.57;;;;;;;25.01;54.55;96894.38;5023195;28;20095;-61
2021/07/11 06:02:45;;;;;;;10.95;8.48;;;;;;;24.65;54.07;96803.59;5022569;28;20064;-61
2021/07/11 06:05:11;;;;;;;9.65;8.75;;;;;;;25.26;53.79;96884.81;5022831;28;20080;-62
2021/07/11 06:07:36;;;;;;;13.70;9.45;;;;;;;25.37;54.36;96881.56;5022820;28;20049;-62
2021/07/11 06:10:06;;;;;;;11.27;9.32;;;;;;;25.62;53.71;96884.06;5022683;28;20095;-60
2021/07/11 06:12:33;;;;;;;13.77;9.07;;;;;;;25.77;53.40;96882.16;5024064;28;20029;-61
2021/07/11 06:14:58;;;;;;;12.35;8.85;;;;;;;26.08;51.77;96885.63;5022483;28;20127;-61
2021/07/11 06:17:24;;;;;;;16.00;10.32;;;;;;;26.19;51.16;96863.19;5024014;28;20119;-61
2021/07/11 06:19:49;;;;;;;13.38;9.90;;;;;;;26.24;50.16;96882.44;5022404;28;20103;-61
2021/07/11 06:22:15;;;;;;;15.82;12.45;;;;;;;26.02;47.77;96810.88;5023177;28;20478;-60
2021/07/11 06:24:40;;;;;;;21.02;13.25;;;;;;;26.65;48.19;96876.00;5023105;28;20040;-62
2021/07/11 06:27:06;;;;;;;17.27;15.27;;;;;;;27.05;47.56;96872.75;5024238;28;20036;-61
2021/07/11 06:29:31;;;;;;;20.50;15.18;;;;;;;27.39;45.03;96875.09;5022492;28;20037;-61
2021/07/11 06:31:57;;;;;;;22.77;16.05;;;;;;;27.46;44.71;96875.50;5022120;28;21247;-61
2021/07/11 06:34:22;;;;;;;17.73;14.45;;;;;;;27.64;44.73;96863.97;5022260;28;20041;-61
2021/07/11 06:36:47;;;;;;;17.55;13.02;;;;;;;27.72;43.76;96853.78;5023870;28;20060;-61
2021/07/11 06:39:13;;;;;;;12.38;10.30;;;;;;;27.93;43.26;96881.13;5022139;28;20067;-61
2021/07/11 06:41:39;;;;;;;21.60;12.00;;;;;;;28.00;43.72;96866.50;5022337;28;20029;-61
2021/07/11 06:44:05;;;;;;;13.55;8.70;;;;;;;27.84;42.95;96820.59;5022270;28;20108;-61
2021/07/11 06:46:30;;;;;;;10.40;9.38;;;;;;;28.25;42.30;96882.22;5022003;28;20123;-61
2021/07/11 06:48:56;;;;;;;12.18;9.85;;;;;;;28.36;42.58;96867.41;5023777;28;20195;-59
2021/07/11 06:51:21;;;;;;;11.63;10.43;;;;;;;28.37;43.19;96875.44;5023398;28;20072;-65
2021/07/11 06:53:47;;;;;;;15.15;9.90;;;;;;;28.45;43.36;96859.53;5022270;28;20049;-62
2021/07/11 06:56:12;;;;;;;16.60;10.05;;;;;;;28.48;42.29;96854.91;5021428;28;20053;-61
2021/07/11 06:58:38;;;;;;;13.07;9.93;;;;;;;28.66;42.05;96869.72;5021655;28;20064;-63
2021/07/11 07:01:03;;;;;;;11.00;9.88;;;;;;;28.46;42.37;96866.00;5023564;28;20436;-62
2021/07/11 07:03:28;;;;;;;13.27;9.95;;;;;;;28.38;42.87;96864.81;5022125;28;20060;-61
2021/07/11 07:05:54;;;;;;;11.73;9.25;;;;;;;28.47;42.54;96867.59;5022951;28;20029;-62
2021/07/11 07:08:20;;;;;;;11.82;10.82;;;;;;;28.56;42.32;96864.63;5021914;28;20363;-62
2021/07/11 07:10:45;;;;;;;14.98;9.98;;;;;;;28.27;42.41;96819.03;5023123;28;20039;-61
2021/07/11 07:13:11;;;;;;;10.77;9.70;;;;;;;28.48;42.19;96809.31;5023304;28;20033;-62
2021/07/11 07:15:37;;;;;;;11.60;10.05;;;;;;;28.54;42.14;96815.88;5021599;28;20045;-62
2021/07/11 07:18:03;;;;;;;10.65;9.73;;;;;;;29.00;42.22;96871.03;5021587;28;20021;-61
2021/07/11 07:20:28;;;;;;;10.95;9.30;;;;;;;29.17;41.14;96864.31;5022999;28;20134;-62
2021/07/11 07:22:54;;;;;;;10.27;9.48;;;;;;;29.36;40.43;96864.81;5021968;28;20033;-62
2021/07/11 07:25:20;;;;;;;9.65;8.80;;;;;;;29.49;40.09;96868.88;5021941;28;20119;-61
2021/07/11 07:27:46;;;;;;;11.32;9.63;;;;;;;29.53;40.54;96857.22;5023355;28;20550;-62
2021/07/11 07:30:18;;;;;;;10.30;9.38;;;;;;;29.61;40.00;96864.06;5021911;28;20033;-61
2021/07/11 07:32:46;;;;;;;10.75;9.60;;;;;;;29.19;40.06;96758.22;5021613;28;20148;-62
2021/07/11 07:35:11;;;;;;;11.25;10.13;;;;;;;30.32;39.22;96855.53;5021515;28;20123;-61
2021/07/11 07:37:37;;;;;;;15.68;10.18;;;;;;;30.47;39.35;96856.19;5021126;28;20040;-62
2021/07/11 07:40:05;;;;;;;13.57;12.30;;;;;;;30.26;37.88;96840.41;5021514;28;20044;-61
2021/07/11 07:42:31;;;;;;;13.88;11.38;;;;;;;30.28;38.19;96854.19;5020319;28;20034;-61
2021/07/11 07:44:57;;;;;;;11.35;10.25;;;;;;;28.68;38.25;96615.47;5021758;28;20037;-60
2021/07/11 07:47:23;;;;;;;11.32;10.10;;;;;;;30.55;37.28;96857.31;5021400;28;20106;-61
2021/07/11 07:49:48;;;;;;;11.70;9.85;;;;;;;30.32;36.92;96798.34;5021309;28;20235;-61
2021/07/11 07:52:14;;;;;;;11.55;10.45;;;;;;;31.12;37.12;96847.84;5021199;28;20033;-62
2021/07/11 07:54:39;;;;;;;11.60;10.40;;;;;;;31.33;36.01;96844.31;5015297;28;20046;-63
2021/07/11 07:57:05;;;;;;;12.25;10.98;;;;;;;31.30;37.04;96847.41;5002837;28;20030;-62
2021/07/11 07:59:30;;;;;;;12.77;11.38;;;;;;;31.09;36.82;96814.50;5001264;28;20034;-61
2021/07/11 08:01:56;;;;;;;13.73;12.13;;;;;;;31.03;36.77;96853.78;5001607;28;20026;-66
2021/07/11 08:04:21;;;;;;;16.65;11.68;;;;;;;30.57;37.16;96773.88;5001961;28;20127;-62
2021/07/11 08:06:50;;;;;;;13.27;11.80;;;;;;;30.77;37.61;96811.75;5003090;28;20488;-63
2021/07/11 08:09:16;;;;;;;15.80;13.93;;;;;;;31.12;37.83;96853.56;5001425;28;20044;-62
2021/07/11 08:11:43;;;;;;;12.98;11.02;;;;;;;31.15;36.74;96846.81;5000539;28;20034;-63
2021/07/11 08:14:08;;;;;;;18.20;13.07;;;;;;;31.01;37.15;96847.75;5002342;28;20071;-62
2021/07/11 08:16:34;;;;;;;13.55;10.93;;;;;;;30.83;36.93;96795.38;5001277;28;20037;-63
2021/07/11 08:18:59;;;;;;;11.50;10.48;;;;;;;30.58;37.44;96839.13;5007096;28;20115;-62
2021/07/11 08:21:25;;;;;;;11.05;10.02;;;;;;;30.41;37.88;96843.94;5004981;28;20096;-62
2021/07/11 08:23:50;;;;;;;12.40;11.10;;;;;;;28.89;39.41;96796.69;5004855;28;20073;-62
2021/07/11 08:26:16;;;;;;;11.82;10.70;;;;;;;29.09;38.93;96800.38;5004873;28;20036;-63
2021/07/11 08:28:41;;;;;;;10.95;10.05;;;;;;;29.78;38.47;96844.31;5004772;28;20421;-61
2021/07/11 08:31:07;;;;;;;15.57;13.43;;;;;;;29.81;38.87;96781.25;5004631;28;20103;-64
2021/07/11 08:33:32;;;;;;;11.77;10.77;;;;;;;30.30;38.79;96840.97;5005998;28;20545;-62
2021/07/11 08:35:59;;;;;;;11.45;10.05;;;;;;;29.54;38.34;96853.09;5006337;28;20074;-62
2021/07/11 08:38:24;;;;;;;11.25;10.20;;;;;;;29.00;39.42;96836.78;5006300;28;20546;-62
2021/07/11 08:40:51;;;;;;;12.05;10.70;;;;;;;29.77;38.37;96832.09;5004571;28;20038;-63
2021/07/11 08:43:18;;;;;;;11.98;10.65;;;;;;;29.77;38.58;96817.81;5004847;28;20386;-62
2021/07/11 08:45:44;;;;;;;11.73;10.60;;;;;;;30.17;38.93;96836.91;5006870;28;20501;-62
2021/07/11 08:48:10;;;;;;;13.07;11.70;;;;;;;30.55;38.22;96840.16;5004241;28;20289;-62
2021/07/11 08:50:36;;;;;;;13.27;10.93;;;;;;;29.91;38.07;96785.50;4810144;28;5001822;-61
2021/07/11 08:53:02;;;;;;;10.65;9.73;;;;;;;30.56;37.78;96836.00;5004619;28;20087;-62
2021/07/11 08:55:28;;;;;;;10.95;10.15;;;;;;;30.03;38.32;96804.34;5018429;28;20393;-62
2021/07/11 08:58:01;;;;;;;11.48;10.45;;;;;;;30.90;36.98;96826.38;5024214;28;20435;-62
2021/07/11 09:00:32;;;;;;;11.93;10.73;;;;;;;31.22;35.76;96823.44;5025860;28;20439;-62
2021/07/11 09:02:58;;;;;;;11.63;10.63;;;;;;;31.29;36.03;96812.28;5025307;28;20045;-61
2021/07/11 09:05:33;;;;;;;11.15;9.88;;;;;;;31.58;35.86;96817.63;5023753;28;20032;-64
2021/07/11 09:08:00;;;;;;;11.55;10.52;;;;;;;31.72;34.75;96824.44;5023730;28;20115;-63
2021/07/11 09:10:40;;;;;;;10.50;9.48;;;;;;;31.43;34.81;96770.44;5023915;28;20036;-63
2021/07/11 09:13:14;;;;;;;14.68;10.98;;;;;;;31.40;34.52;96802.97;5023830;28;20042;-62
2021/07/11 09:15:47;;;;;;;11.73;10.30;;;;;;;31.65;34.91;96804.88;5025610;28;20033;-62
2021/07/11 09:18:13;;;;;;;12.27;10.80;;;;;;;31.52;35.19;96805.34;5024779;28;20045;-62
2021/07/11 09:20:57;;;;;;;13.77;11.00;;;;;;;31.35;34.83;96798.78;5023277;28;20552;-61
2021/07/11 09:23:25;;;;;;;12.02;11.00;;;;;;;31.73;34.70;96800.22;5025492;28;20053;-62
2021/07/11 09:26:06;;;;;;;10.57;9.73;;;;;;;31.77;33.62;96800.75;5023152;28;20523;-61
2021/07/11 09:28:33;;;;;;;11.90;10.68;;;;;;;31.70;34.43;96795.50;5024643;28;20055;-62
2021/07/11 09:31:03;;;;;;;11.32;9.65;;;;;;;31.80;34.41;96782.53;5023486;28;20029;-62
2021/07/11 09:33:28;;;;;;;20.55;14.65;;;;;;;31.74;33.75;96721.56;5025125;28;20030;-63
2021/07/11 09:36:08;;;;;;;18.65;13.13;;;;;;;31.65;32.53;96741.84;5023516;28;20041;-63
2021/07/11 09:38:34;;;;;;;12.10;11.05;;;;;;;31.95;33.06;96789.59;5024727;28;20072;-62
2021/07/11 09:41:13;;;;;;;13.15;11.68;;;;;;;32.18;32.82;96785.44;5023123;28;20049;-61
2021/07/11 09:43:39;;;;;;;17.15;15.35;;;;;;;32.32;33.01;96772.16;5024795;28;20037;-61
2021/07/11 09:46:16;;;;;;;12.35;11.18;;;;;;;31.83;33.49;96738.50;5024650;28;20144;-62
2021/07/11 09:48:41;;;;;;;16.75;13.35;;;;;;;31.47;33.71;96705.13;5023275;28;20063;-61
2021/07/11 09:51:20;;;;;;;12.82;11.57;;;;;;;32.16;33.29;96793.03;5024764;28;20033;-61
2021/07/11 09:53:48;;;;;;;11.45;10.35;;;;;;;31.02;33.97;96797.81;5023879;28;20029;-62
2021/07/11 09:56:34;;;;;;;11.50;10.15;;;;;;;31.44;33.27;96777.75;5019907;28;20049;-62
2021/07/11 09:59:01;;;;;;;13.05;11.85;;;;;;;31.21;34.32;96787.50;5003484;28;20037;-61
2021/07/11 10:01:31;;;;;;;11.05;10.18;;;;;;;31.65;33.30;96762.69;5004507;28;20034;-62
2021/07/11 10:03:58;;;;;;;11.60;10.43;;;;;;;31.26;32.51;96669.38;5004830;28;20436;-63
2021/07/11 10:06:24;;;;;;;13.85;12.43;;;;;;;31.77;33.52;96789.28;5004714;28;20041;-62
2021/07/11 10:08:50;;;;;;;17.52;11.40;;;;;;;31.00;34.37;96743.19;5003054;28;20033;-62
2021/07/11 10:11:16;;;;;;;11.88;10.85;;;;;;;30.65;35.50;96784.31;5002791;28;20049;-61
2021/07/11 10:13:41;;;;;;;12.95;10.98;;;;;;;30.55;35.23;96776.44;5004797;28;20064;-60
2021/07/11 10:16:12;;;;;;;26.05;17.90;;;;;;;30.53;35.51;96784.75;5002969;28;20038;-61
2021/07/11 10:18:39;;;;;;;14.45;11.75;;;;;;;31.21;35.31;96781.78;5004194;28;20087;-63
2021/07/11 10:21:05;;;;;;;14.98;13.43;;;;;;;29.82;33.99;96513.53;5004136;28;20065;-61
2021/07/11 10:23:37;;;;;;;16.63;14.23;;;;;;;31.42;34.15;96778.25;5004272;28;20125;-62
2021/07/11 10:26:14;;;;;;;18.10;14.18;;;;;;;31.48;35.07;96784.00;5004711;28;20069;-62
2021/07/11 10:28:48;;;;;;;15.15;13.63;;;;;;;31.34;34.54;96780.06;5002919;28;20041;-62
2021/07/11 10:31:24;;;;;;;12.23;11.23;;;;;;;30.38;35.86;96744.09;5002735;28;20041;-63
2021/07/11 10:33:53;;;;;;;12.35;11.27;;;;;;;30.99;36.06;96782.47;5003124;28;20034;-63
2021/07/11 10:36:30;;;;;;;16.10;14.48;;;;;;;31.03;36.06;96765.06;5004507;28;20048;-62
2021/07/11 10:38:57;;;;;;;11.80;10.68;;;;;;;31.30;34.45;96761.53;5003967;28;20030;-62
2021/07/11 10:41:28;;;;;;;12.55;10.98;;;;;;;32.02;33.44;96765.38;5002065;28;20042;-65
2021/07/11 10:44:05;;;;;;;12.70;10.15;;;;;;;32.70;32.80;96751.28;5002279;28;20412;-62
2021/07/11 10:46:43;;;;;;;19.60;11.55;;;;;;;33.20;32.50;96754.81;5004240;28;20064;-62
2021/07/11 10:49:13;;;;;;;12.60;11.48;;;;;;;33.02;32.52;96761.13;5004274;28;20089;-63
2021/07/11 10:52:00;;;;;;;13.70;12.30;;;;;;;32.78;32.51;96755.19;5004412;28;20092;-64
2021/07/11 10:54:28;;;;;;;10.98;9.98;;;;;;;31.41;34.09;96756.63;5004439;28;20037;-65
2021/07/11 10:57:00;;;;;;;11.65;10.48;;;;;;;32.08;33.36;96720.31;5004406;28;20049;-63
2021/07/11 10:59:37;;;;;;;12.13;11.13;;;;;;;32.07;33.76;96750.28;5018984;28;20481;-63
2021/07/11 11:02:12;;;;;;;12.20;11.20;;;;;;;32.50;33.04;96742.97;5004104;28;20050;-63
2021/07/11 11:04:38;;;;;;;14.57;13.13;;;;;;;31.53;33.78;96688.72;5002402;28;20517;-64
2021/07/11 11:07:18;;;;;;;13.43;11.63;;;;;;;32.41;33.05;96751.84;5002331;28;20138;-62
2021/07/11 11:09:47;;;;;;;12.98;11.88;;;;;;;32.12;33.20;96752.38;5004336;28;20049;-62
2021/07/11 11:12:20;;;;;;;20.80;13.18;;;;;;;31.96;33.11;96733.06;5002546;28;20479;-64
2021/07/11 11:14:54;;;;;;;13.13;11.85;;;;;;;32.44;32.29;96732.84;5002001;28;20499;-61
2021/07/11 11:17:26;;;;;;;11.02;10.27;;;;;;;32.99;32.10;96733.47;5003631;28;20550;-63
2021/07/11 11:19:52;;;;;;;12.30;11.25;;;;;;;32.91;32.58;96732.47;5001909;28;20055;-62
2021/07/11 11:22:17;;;;;;;12.80;11.70;;;;;;;32.86;33.32;96724.66;5001995;28;20050;-63
2021/07/11 11:24:43;;;;;;;14.10;12.75;;;;;;;32.33;33.27;96670.50;5002104;28;20030;-64
2021/07/11 11:27:08;;;;;;;13.40;12.10;;;;;;;32.04;34.11;96662.47;5018121;28;20033;-62
2021/07/11 11:29:33;;;;;;;20.52;16.42;;;;;;;32.80;33.56;96718.13;5001933;28;20041;-62